West Chester, Ohio
Current Conditions -  °F | °C
As of 6:53 PM on Saturday 25 Oct 2014 (Local Time) from KHAO Reporting Station
Clear Clear  
Wind Chill: 65°   Ceiling: Unl
Heat Index: 65°   Visibility: 9mi
Dew Point: 54°   Wind: 3mph
Humidity: 68%   Direction: 250°WSW
Pressure: 29.91"   Gusts: NA
Location:  39.33°N, 84.4°W
Report Text: KHAO 252253Z AUTO 25003KT 9SM CLR 18/12 A2991 RMK AO2 SLP128 T01830122
Loading
Personal Weather Stations






























Interactive Weather Map New forecast layout! Learn more

10-Day Weather Forecast

Advertisements
Track Severe Weather on mobile